createdAt,value
2023-08-27T00:02:12.200Z,85.29
2023-08-27T00:07:15.502Z,85.84
2023-08-27T00:12:18.737Z,85.37
2023-08-27T00:17:23.437Z,83.82
2023-08-27T00:22:26.745Z,83.49
2023-08-27T00:27:30.003Z,84.87
2023-08-27T00:32:35.521Z,85.47
2023-08-27T00:37:38.793Z,85.87
2023-08-27T00:42:41.982Z,89.36
2023-08-27T00:47:46.555Z,89.19
2023-08-27T00:52:49.891Z,86.56
2023-08-27T00:57:53.975Z,85.37
2023-08-27T01:02:58.899Z,85.39
2023-08-27T01:08:10.477Z,88.33
2023-08-27T01:13:19.431Z,88.72
2023-08-27T01:18:24.204Z,86.28
2023-08-27T01:23:29.034Z,87.49
2023-08-27T01:28:35.944Z,86.58
2023-08-27T01:33:39.732Z,87.67
2023-08-27T01:38:44.310Z,86.37
2023-08-27T01:43:47.563Z,87.71
2023-08-27T01:48:50.795Z,87.41
2023-08-27T01:53:55.370Z,88.07
2023-08-27T04:28:45.349Z,88.53
2023-08-27T04:33:48.523Z,88.16
2023-08-27T04:38:51.680Z,90.27
2023-08-27T04:43:56.291Z,88.82
2023-08-27T04:48:59.595Z,88.99
2023-08-27T04:54:03.112Z,88.69
2023-08-27T04:59:08.137Z,88.95
2023-08-27T05:04:11.355Z,90.30
2023-08-27T05:09:15.297Z,90.00
2023-08-27T05:14:19.929Z,89.01
2023-08-27T05:19:23.288Z,88.57
2023-08-27T05:24:26.451Z,88.32
2023-08-27T05:29:31.102Z,89.22
2023-08-27T05:34:34.435Z,87.91
2023-08-27T05:39:37.584Z,86.86
2023-08-27T05:44:42.160Z,87.43
2023-08-27T05:49:45.792Z,88.59
2023-08-27T05:54:49.005Z,88.46
2023-08-27T05:59:53.529Z,86.89
2023-08-27T06:04:56.755Z,87.20
2023-08-27T06:10:00.143Z,85.66
2023-08-27T06:15:05.926Z,87.36
2023-08-27T06:20:10.288Z,85.93
2023-08-27T06:25:13.757Z,86.01
2023-08-27T06:30:18.645Z,86.68
2023-08-27T06:35:21.856Z,86.72
2023-08-27T06:40:25.018Z,86.86
2023-08-27T06:45:29.834Z,86.54
2023-08-27T06:50:33.056Z,84.96
2023-08-27T06:55:36.661Z,85.56
2023-08-27T07:00:42.318Z,85.64
2023-08-27T07:05:45.501Z,86.48
2023-08-27T07:10:49.281Z,86.85
2023-08-27T07:15:53.904Z,87.51
2023-08-27T07:20:57.133Z,87.32
2023-08-27T07:26:00.400Z,87.32
2023-08-27T07:31:04.987Z,87.33
2023-08-27T07:36:08.323Z,87.48
2023-08-27T07:41:14.089Z,86.44
2023-08-27T07:46:18.927Z,85.98
2023-08-27T07:51:22.157Z,86.21
2023-08-27T07:56:26.575Z,85.96
2023-08-27T08:01:31.163Z,84.29
2023-08-27T08:06:34.322Z,84.46
2023-08-27T08:11:37.817Z,83.78
2023-08-27T08:16:42.428Z,82.99
2023-08-27T08:21:45.624Z,83.35
2023-08-27T08:26:50.786Z,83.56
2023-08-27T08:31:55.390Z,83.65
2023-08-27T08:36:58.932Z,83.15
2023-08-27T08:42:10.587Z,82.75
2023-08-27T08:47:19.503Z,84.82
2023-08-27T08:52:24.347Z,84.64
2023-08-27T08:57:31.139Z,83.81
2023-08-27T09:02:36.235Z,84.94
2023-08-27T09:07:41.324Z,81.37
2023-08-27T09:12:44.470Z,81.93
2023-08-27T09:17:49.438Z,81.78
2023-08-27T09:22:52.788Z,79.21
2023-08-27T09:27:56.186Z,75.85
2023-08-27T09:33:00.790Z,75.52
2023-08-27T09:38:04.296Z,73.53
2023-08-27T09:43:08.636Z,74.00
2023-08-27T09:48:24.198Z,72.34
2023-08-27T09:53:27.481Z,70.40
2023-08-27T09:58:31.518Z,71.19
2023-08-27T10:03:36.260Z,71.01
2023-08-27T10:08:48.064Z,70.48
2023-08-27T10:13:51.439Z,71.00
2023-08-27T10:18:56.294Z,71.08
2023-08-27T10:23:59.831Z,69.51
2023-08-27T10:29:04.778Z,69.48
2023-08-27T10:34:10.358Z,67.62
2023-08-27T10:39:14.397Z,68.01
2023-08-27T10:44:20.185Z,71.30
2023-08-27T10:49:24.784Z,71.20
2023-08-27T10:54:28.240Z,73.00
2023-08-27T10:59:31.935Z,72.03
2023-08-27T11:04:37.054Z,70.62
2023-08-27T11:09:48.358Z,70.64
2023-08-27T11:14:51.802Z,71.33
2023-08-27T11:19:58.570Z,69.86
2023-08-27T11:25:02.449Z,67.65
2023-08-27T11:30:10.152Z,70.08
2023-08-27T11:35:15.843Z,70.78
2023-08-27T11:40:20.271Z,68.43
2023-08-27T11:45:31.638Z,65.99
2023-08-27T11:50:36.525Z,66.49
2023-08-27T11:55:40.585Z,62.38
2023-08-27T12:00:44.664Z,62.04
2023-08-27T12:05:50.268Z,63.49
2023-08-27T12:10:53.758Z,60.27
2023-08-27T12:15:57.098Z,64.45
2023-08-27T12:21:08.969Z,58.42
2023-08-27T12:26:12.304Z,61.65
2023-08-27T12:31:23.530Z,59.93
2023-08-27T12:36:28.240Z,57.59
2023-08-27T12:41:31.515Z,57.52
2023-08-27T12:46:36.853Z,58.12
2023-08-27T12:51:42.810Z,58.45
2023-08-27T12:56:46.603Z,58.21
2023-08-27T13:01:50.002Z,58.09
2023-08-27T13:06:54.634Z,58.00
2023-08-27T13:11:57.835Z,54.38
2023-08-27T13:17:01.025Z,53.43
2023-08-27T13:22:05.717Z,54.54
2023-08-27T13:27:09.233Z,56.02
2023-08-27T13:32:12.397Z,57.97
2023-08-27T13:37:17.030Z,56.16
2023-08-27T13:42:20.292Z,56.67
2023-08-27T13:47:23.568Z,55.23
2023-08-27T13:52:28.410Z,56.49
2023-08-27T13:57:31.656Z,55.71
2023-08-27T14:02:34.950Z,55.98
2023-08-27T14:07:39.657Z,57.47
2023-08-27T14:12:42.872Z,57.05
2023-08-27T14:17:46.125Z,56.93
2023-08-27T14:22:50.755Z,55.95
2023-08-27T14:27:53.996Z,56.18
2023-08-27T14:32:57.288Z,56.94
2023-08-27T14:38:02.515Z,56.35
2023-08-27T14:43:05.939Z,55.47
2023-08-27T14:48:09.239Z,56.09
2023-08-27T14:53:13.876Z,57.79
2023-08-27T14:58:17.091Z,55.78
2023-08-27T15:03:20.367Z,54.36
2023-08-27T15:08:24.941Z,59.00
2023-08-27T15:13:28.245Z,58.77
2023-08-27T15:18:32.114Z,63.75
2023-08-27T15:23:36.725Z,66.79
2023-08-27T15:28:39.942Z,66.81
2023-08-27T15:33:43.179Z,68.54
2023-08-27T15:38:47.783Z,68.88
2023-08-27T15:43:51.020Z,69.08
2023-08-27T15:48:54.245Z,70.35
2023-08-27T15:53:58.868Z,71.31
2023-08-27T15:59:02.030Z,70.98
2023-08-27T16:04:06.948Z,70.23
2023-08-27T16:09:11.802Z,69.96
2023-08-27T16:14:15.105Z,70.76
2023-08-27T16:19:18.308Z,70.88
2023-08-27T16:24:22.945Z,71.14
2023-08-27T16:29:26.246Z,71.05
2023-08-27T16:34:29.532Z,71.64
2023-08-27T16:39:34.199Z,71.37
2023-08-27T16:44:37.395Z,72.21
2023-08-27T16:49:40.706Z,72.29
2023-08-27T16:54:45.288Z,72.94
2023-08-27T16:59:48.517Z,72.27
2023-08-27T17:04:51.771Z,74.03
2023-08-27T17:09:56.324Z,74.05
2023-08-27T17:15:00.260Z,74.51
2023-08-27T17:20:03.500Z,74.58
2023-08-27T17:25:09.289Z,72.84
2023-08-27T17:30:12.698Z,72.80
2023-08-27T17:35:15.967Z,73.45
2023-08-27T17:40:20.575Z,73.63
2023-08-27T17:45:23.816Z,74.60
2023-08-27T17:50:27.084Z,75.02
2023-08-27T17:55:32.309Z,74.39
2023-08-27T18:00:35.523Z,74.16
2023-08-27T18:05:38.797Z,73.36
2023-08-27T18:10:43.457Z,74.67
2023-08-27T18:15:46.662Z,75.59
2023-08-27T18:20:49.915Z,75.37
2023-08-27T18:25:54.500Z,75.67
2023-08-27T18:30:58.075Z,77.45
2023-08-27T18:36:01.309Z,77.13
2023-08-27T18:41:05.941Z,77.67
2023-08-27T18:46:09.154Z,77.08
2023-08-27T18:51:12.415Z,75.45
2023-08-27T18:56:17.299Z,70.22
2023-08-27T19:01:20.629Z,67.85
2023-08-27T19:06:23.943Z,64.88
2023-08-27T19:11:28.530Z,63.35
2023-08-27T19:16:31.753Z,62.62
2023-08-27T19:21:34.910Z,62.65
2023-08-27T19:26:39.663Z,61.32
2023-08-27T19:31:47.319Z,61.64
2023-08-27T19:36:51.059Z,59.38
2023-08-27T19:41:55.622Z,59.99
2023-08-27T19:46:58.792Z,58.51
2023-08-27T19:52:02.049Z,57.98
2023-08-27T19:57:07.278Z,57.98
2023-08-27T20:02:10.754Z,58.23
2023-08-27T20:07:14.557Z,59.01
2023-08-27T20:12:19.127Z,60.05
2023-08-27T20:17:22.477Z,59.48
2023-08-27T20:22:26.261Z,59.63
2023-08-27T20:27:30.940Z,59.26
2023-08-27T20:32:34.177Z,58.67
2023-08-27T20:37:37.956Z,57.95
2023-08-27T20:42:46.935Z,57.66
2023-08-27T20:47:50.870Z,56.78
2023-08-27T20:52:55.461Z,58.20
2023-08-27T20:58:00.055Z,58.96
2023-08-27T21:03:03.634Z,60.69
2023-08-27T21:08:07.561Z,65.66
2023-08-27T21:13:12.213Z,72.56
2023-08-27T21:18:15.460Z,73.92
2023-08-27T21:23:18.624Z,75.00
2023-08-27T21:28:23.172Z,76.44
2023-08-27T21:33:26.476Z,77.00
2023-08-27T21:38:29.667Z,76.60
2023-08-27T21:43:34.252Z,76.78
2023-08-27T21:48:37.479Z,77.17
2023-08-27T21:53:40.709Z,77.15
2023-08-27T21:58:46.868Z,77.69
2023-08-27T22:03:50.518Z,77.39
2023-08-27T22:08:54.206Z,77.62
2023-08-27T22:13:58.848Z,77.32
2023-08-27T22:19:16.807Z,76.36
2023-08-27T22:24:25.298Z,74.37
2023-08-27T22:29:29.916Z,73.10
2023-08-27T22:34:33.450Z,71.95
2023-08-27T22:39:36.791Z,71.45
2023-08-27T22:44:41.377Z,70.95
2023-08-27T22:49:44.704Z,70.88
2023-08-27T22:54:48.110Z,70.48
2023-08-27T22:59:52.937Z,70.71
2023-08-27T23:04:56.126Z,70.78
2023-08-27T23:09:59.328Z,69.76
2023-08-27T23:15:04.907Z,69.46
2023-08-27T23:20:10.664Z,68.51
2023-08-27T23:25:14.354Z,66.51
2023-08-27T23:30:19.498Z,65.25
2023-08-27T23:35:22.704Z,64.62
2023-08-27T23:40:26.306Z,62.41
2023-08-27T23:45:30.925Z,59.92
2023-08-27T23:50:34.179Z,57.70
2023-08-27T23:55:37.513Z,55.15
